Time;durP1;ratioP1;P1;durP2;ratioP2;P2;SDS_P1;SDS_P2;PMS_P1;PMS_P2;Temp;Humidity;BMP_temperature;BMP_pressure;BME280_temperature;BME280_humidity;BME280_pressure;Samples;Min_cycle;Max_cycle;Signal;HPM_P1;HPM_P2
2021/04/30 00:01:07;;;;;;;25.75;5.10;;;11.40;98.10;;;;;;5069243;28;20434;-73
2021/04/30 00:03:34;;;;;;;26.40;5.60;;;11.40;98.20;;;;;;5074990;28;20426;-72
2021/04/30 00:06:01;;;;;;;24.20;5.30;;;11.40;98.20;;;;;;5071940;28;20418;-72
2021/04/30 00:08:27;;;;;;;23.43;5.33;;;11.40;98.40;;;;;;5068722;28;20515;-73
2021/04/30 00:10:54;;;;;;;22.75;5.70;;;11.40;98.40;;;;;;5068260;28;20910;-72
2021/04/30 00:13:20;;;;;;;23.13;5.55;;;11.40;98.40;;;;;;5067954;28;20427;-73
2021/04/30 00:15:48;;;;;;;21.17;4.97;;;11.50;98.30;;;;;;5065288;28;20460;-73
2021/04/30 00:18:14;;;;;;;26.77;5.50;;;11.50;98.20;;;;;;5067508;28;20432;-73
2021/04/30 00:20:52;;;;;;;24.17;5.90;;;11.40;98.20;;;;;;5070906;28;20427;-72
2021/04/30 00:23:24;;;;;;;22.83;5.43;;;11.50;98.30;;;;;;5067329;28;20434;-73
2021/04/30 00:25:51;;;;;;;25.85;5.80;;;11.50;98.20;;;;;;5066749;28;20423;-74
2021/04/30 00:28:17;;;;;;;20.20;5.70;;;11.50;98.20;;;;;;5067581;28;20446;-72
2021/04/30 00:30:44;;;;;;;24.50;6.30;;;11.50;98.40;;;;;;5068901;28;20538;-72
2021/04/30 00:33:11;;;;;;;29.95;6.25;;;11.50;98.40;;;;;;5068652;28;20433;-73
2021/04/30 00:35:38;;;;;;;25.08;5.72;;;11.50;98.30;;;;;;5073746;28;20935;-73
2021/04/30 00:38:04;;;;;;;27.17;6.07;;;11.50;98.30;;;;;;5068291;28;20419;-73
2021/04/30 00:40:31;;;;;;;23.43;6.40;;;11.50;98.20;;;;;;5067534;28;20784;-73
2021/04/30 00:42:57;;;;;;;20.95;6.15;;;11.50;98.30;;;;;;5063469;28;20424;-73
2021/04/30 00:45:24;;;;;;;26.25;6.28;;;11.50;98.30;;;;;;5071454;28;20449;-73
2021/04/30 00:47:52;;;;;;;26.27;6.75;;;11.50;98.50;;;;;;5067874;28;20510;-73
2021/04/30 00:50:23;;;;;;;23.98;6.40;;;11.50;98.50;;;;;;5067846;28;20435;-72
2021/04/30 00:52:49;;;;;;;31.10;7.10;;;11.50;98.60;;;;;;5072595;28;20427;-73
2021/04/30 00:55:17;;;;;;;27.75;7.03;;;11.50;98.50;;;;;;5071136;28;23095;-73
2021/04/30 00:57:48;;;;;;;29.92;7.72;;;11.50;98.70;;;;;;5072419;28;20445;-74
2021/04/30 01:00:16;;;;;;;26.55;7.85;;;11.50;98.60;;;;;;5070181;28;20431;-74
2021/04/30 01:02:42;;;;;;;27.20;7.88;;;11.50;98.60;;;;;;5065787;28;20831;-73
2021/04/30 01:05:10;;;;;;;26.55;7.90;;;11.60;98.70;;;;;;5067455;28;20511;-73
2021/04/30 01:07:38;;;;;;;26.25;8.30;;;11.50;98.70;;;;;;5065521;28;20427;-73
2021/04/30 01:10:05;;;;;;;35.40;9.18;;;11.60;98.50;;;;;;5066600;28;20428;-73
2021/04/30 01:12:32;;;;;;;32.42;9.27;;;11.60;98.50;;;;;;5066131;28;20544;-72
2021/04/30 01:15:00;;;;;;;27.10;9.02;;;11.60;98.50;;;;;;5065916;28;20419;-73
2021/04/30 01:17:27;;;;;;;28.58;9.25;;;11.50;98.50;;;;;;5064473;28;20466;-72
2021/04/30 01:19:55;;;;;;;29.55;9.68;;;11.60;98.80;;;;;;5071797;28;21117;-73
2021/04/30 01:22:36;;;;;;;31.77;9.60;;;11.60;98.40;;;;;;5065655;28;20438;-73
2021/04/30 01:25:05;;;;;;;27.88;10.23;;;11.60;98.50;;;;;;5072207;28;20421;-71
2021/04/30 01:27:31;;;;;;;31.02;10.40;;;11.60;98.50;;;;;;5075134;28;20427;-71
2021/04/30 01:29:58;;;;;;;30.65;10.90;;;11.50;98.50;;;;;;5074596;28;20440;-72
2021/04/30 01:32:24;;;;;;;29.27;10.30;;;11.60;98.60;;;;;;5073714;28;20417;-72
2021/04/30 01:34:51;;;;;;;29.95;11.27;;;11.60;98.50;;;;;;5064842;28;20485;-71
2021/04/30 01:37:18;;;;;;;30.63;11.45;;;11.60;98.70;;;;;;5072962;28;20846;-72
2021/04/30 01:39:45;;;;;;;30.07;10.93;;;11.60;98.60;;;;;;5067142;28;20430;-73
2021/04/30 01:42:11;;;;;;;27.97;11.10;;;11.60;98.50;;;;;;5070648;28;20485;-73
2021/04/30 01:44:38;;;;;;;34.05;12.02;;;11.60;98.40;;;;;;5065556;28;21067;-73
2021/04/30 01:47:04;;;;;;;33.53;11.40;;;11.60;98.40;;;;;;5066580;28;20887;-73
2021/04/30 01:49:31;;;;;;;29.02;11.63;;;11.60;98.30;;;;;;5070267;28;20424;-72
2021/04/30 01:51:57;;;;;;;32.22;11.02;;;11.60;98.30;;;;;;5064658;28;20428;-73
2021/04/30 01:54:24;;;;;;;34.13;12.00;;;11.60;98.00;;;;;;5067388;28;20454;-72
2021/04/30 01:56:51;;;;;;;28.33;10.80;;;11.60;98.10;;;;;;5065356;28;20433;-73
2021/04/30 01:59:18;;;;;;;28.23;10.95;;;11.60;98.00;;;;;;5076758;28;20431;-72
2021/04/30 02:01:44;;;;;;;32.03;11.80;;;11.60;97.80;;;;;;5064917;28;20434;-73
2021/04/30 02:04:11;;;;;;;26.30;11.15;;;11.60;97.70;;;;;;5072369;28;20430;-73
2021/04/30 02:06:39;;;;;;;27.35;11.05;;;11.60;97.80;;;;;;5065570;28;20438;-73
2021/04/30 02:09:07;;;;;;;29.15;11.32;;;11.60;97.80;;;;;;5071393;28;20487;-73
2021/04/30 02:11:34;;;;;;;34.83;11.30;;;11.60;97.80;;;;;;5068978;28;20800;-72
2021/04/30 02:14:03;;;;;;;27.52;11.20;;;11.60;97.90;;;;;;5071027;28;20433;-74
2021/04/30 02:16:30;;;;;;;29.30;11.57;;;11.60;97.90;;;;;;5065573;28;20422;-74
2021/04/30 02:18:57;;;;;;;29.70;11.88;;;11.60;97.80;;;;;;5065036;28;21041;-72
2021/04/30 02:21:23;;;;;;;31.23;12.07;;;11.70;98.00;;;;;;5071142;28;20499;-71
2021/04/30 02:23:50;;;;;;;34.47;12.45;;;11.70;98.10;;;;;;5071681;28;20420;-73
2021/04/30 02:26:16;;;;;;;31.10;11.60;;;11.70;98.30;;;;;;5072030;28;20417;-74
2021/04/30 02:28:45;;;;;;;30.90;11.63;;;11.70;97.90;;;;;;5070637;28;20434;-74
2021/04/30 02:31:13;;;;;;;30.15;11.43;;;11.70;97.70;;;;;;5073804;28;20431;-74
2021/04/30 02:33:40;;;;;;;30.83;11.93;;;11.70;97.50;;;;;;5076874;28;20930;-72
2021/04/30 02:36:08;;;;;;;33.75;12.18;;;11.70;97.60;;;;;;5074115;28;20430;-72
2021/04/30 02:38:34;;;;;;;32.95;11.70;;;11.70;97.70;;;;;;5069890;28;20432;-72
2021/04/30 02:41:01;;;;;;;32.63;11.60;;;11.70;97.50;;;;;;5080462;28;20205;-73
2021/04/30 02:43:27;;;;;;;27.23;10.77;;;11.40;97.90;;;;;;5072560;28;20249;-72
2021/04/30 02:45:54;;;;;;;35.65;11.15;;;11.10;98.40;;;;;;5082697;28;20222;-72
2021/04/30 02:48:28;;;;;;;25.70;10.88;;;10.90;98.70;;;;;;5072690;28;20316;-72
2021/04/30 02:50:55;;;;;;;27.10;10.50;;;10.80;99.00;;;;;;5074473;28;20606;-72
2021/04/30 02:53:21;;;;;;;30.13;11.77;;;10.60;99.10;;;;;;5073619;28;20206;-71
2021/04/30 02:55:48;;;;;;;31.55;11.15;;;10.50;99.30;;;;;;5073441;28;20646;-73
2021/04/30 02:58:14;;;;;;;38.00;11.38;;;10.50;99.50;;;;;;5071993;28;20651;-74
2021/04/30 03:00:41;;;;;;;33.88;10.57;;;10.40;99.60;;;;;;5078365;28;20562;-72
2021/04/30 03:03:07;;;;;;;28.10;10.38;;;10.40;99.80;;;;;;5075693;28;20230;-72
2021/04/30 03:05:34;;;;;;;32.10;11.10;;;10.30;99.90;;;;;;5074442;28;20214;-71
2021/04/30 03:08:01;;;;;;;31.70;11.23;;;10.30;99.90;;;;;;5072940;28;20222;-72
2021/04/30 03:10:27;;;;;;;31.30;11.05;;;10.30;99.90;;;;;;5073488;28;20659;-71
2021/04/30 03:12:54;;;;;;;37.35;11.30;;;10.30;99.90;;;;;;5079510;28;20206;-72
2021/04/30 03:15:21;;;;;;;31.38;11.15;;;10.20;99.90;;;;;;5075092;28;20281;-71
2021/04/30 03:17:48;;;;;;;34.47;11.38;;;10.20;99.90;;;;;;5072075;28;20237;-72
2021/04/30 03:20:16;;;;;;;26.83;11.45;;;10.20;99.90;;;;;;5078895;28;20274;-71
2021/04/30 03:22:43;;;;;;;27.70;11.10;;;10.20;99.90;;;;;;5078004;28;20599;-72
2021/04/30 03:25:11;;;;;;;29.88;11.48;;;10.20;99.90;;;;;;5072743;28;20576;-73
2021/04/30 03:27:38;;;;;;;25.27;11.13;;;10.20;99.90;;;;;;5070864;28;20244;-73
2021/04/30 03:30:06;;;;;;;31.85;11.95;;;10.10;99.90;;;;;;5080756;28;20654;-72
2021/04/30 03:32:33;;;;;;;26.17;11.07;;;10.10;99.90;;;;;;5072463;28;20194;-73
2021/04/30 03:35:00;;;;;;;29.58;11.75;;;10.10;99.90;;;;;;5076149;28;20617;-74
2021/04/30 03:37:26;;;;;;;28.23;11.77;;;10.10;99.90;;;;;;5069588;28;20199;-71
2021/04/30 03:39:53;;;;;;;37.90;13.30;;;10.10;99.90;;;;;;5072059;28;20206;-73
2021/04/30 03:42:20;;;;;;;34.83;13.05;;;10.10;99.90;;;;;;5069704;28;20207;-71
2021/04/30 03:44:46;;;;;;;36.60;13.50;;;10.10;99.90;;;;;;5075690;28;20561;-71
2021/04/30 03:47:13;;;;;;;34.00;12.45;;;10.10;99.90;;;;;;5069814;28;20229;-72
2021/04/30 03:49:40;;;;;;;26.30;11.10;;;10.10;99.90;;;;;;5076719;28;20213;-73
2021/04/30 03:52:06;;;;;;;31.33;11.20;;;10.10;99.90;;;;;;5068327;28;20320;-73
2021/04/30 03:54:33;;;;;;;29.77;12.30;;;10.10;99.90;;;;;;5069327;28;20199;-72
2021/04/30 03:57:00;;;;;;;31.13;11.43;;;10.00;99.90;;;;;;5068984;28;22331;-72
2021/04/30 03:59:26;;;;;;;30.13;12.07;;;10.00;99.90;;;;;;5070989;28;20191;-72
2021/04/30 04:01:53;;;;;;;28.10;12.35;;;10.00;99.90;;;;;;5069381;28;20235;-74
2021/04/30 04:04:19;;;;;;;29.65;11.32;;;10.00;99.90;;;;;;5066941;28;20203;-73
2021/04/30 04:06:45;;;;;;;27.15;10.90;;;10.00;99.90;;;;;;5074356;28;20222;-72
2021/04/30 04:09:12;;;;;;;25.38;11.20;;;10.00;99.90;;;;;;5068726;28;20217;-74
2021/04/30 04:11:39;;;;;;;30.17;11.32;;;10.00;99.90;;;;;;5070400;28;20854;-72
2021/04/30 04:14:06;;;;;;;34.80;11.15;;;10.00;99.90;;;;;;5065592;28;20215;-74
2021/04/30 04:16:34;;;;;;;34.72;11.90;;;10.00;99.90;;;;;;5069037;28;20195;-74
2021/04/30 04:19:00;;;;;;;30.05;12.98;;;10.00;99.90;;;;;;5069446;28;20213;-72
2021/04/30 04:21:27;;;;;;;27.02;11.30;;;10.00;99.90;;;;;;5077077;28;20207;-73
2021/04/30 04:23:53;;;;;;;40.50;11.65;;;9.90;99.90;;;;;;5068793;28;20206;-73
2021/04/30 04:26:19;;;;;;;28.42;11.75;;;10.00;99.90;;;;;;5069508;28;20221;-73
2021/04/30 04:28:46;;;;;;;25.13;11.20;;;10.00;99.90;;;;;;5069122;28;20239;-73
2021/04/30 04:31:13;;;;;;;32.65;11.43;;;9.90;99.90;;;;;;5071853;28;20199;-72
2021/04/30 04:33:39;;;;;;;31.10;11.77;;;10.00;99.90;;;;;;5067800;28;20225;-73
2021/04/30 04:36:06;;;;;;;25.38;10.98;;;9.90;99.90;;;;;;5073819;28;20198;-73
2021/04/30 04:38:33;;;;;;;34.25;11.27;;;9.90;99.90;;;;;;5064605;28;20208;-72
2021/04/30 04:40:59;;;;;;;35.72;12.18;;;9.90;99.90;;;;;;5067176;28;20198;-73
2021/04/30 04:43:25;;;;;;;28.90;11.98;;;9.90;99.90;;;;;;5063480;28;20642;-73
2021/04/30 04:45:52;;;;;;;39.70;12.10;;;9.90;99.90;;;;;;5068395;28;20222;-71
2021/04/30 04:48:19;;;;;;;27.13;11.65;;;9.90;99.90;;;;;;5068452;28;20207;-72
2021/04/30 04:50:45;;;;;;;29.88;11.63;;;9.90;99.90;;;;;;5068641;28;20260;-73
2021/04/30 04:53:12;;;;;;;30.75;11.27;;;9.90;99.90;;;;;;5068921;28;20225;-72
2021/04/30 04:55:38;;;;;;;21.02;11.15;;;9.90;99.90;;;;;;5066948;28;21709;-73
2021/04/30 04:58:04;;;;;;;31.15;12.20;;;9.90;99.90;;;;;;5074060;28;20259;-73
2021/04/30 05:00:32;;;;;;;31.60;11.43;;;9.90;99.90;;;;;;5070935;28;20206;-74
2021/04/30 05:02:59;;;;;;;30.25;11.25;;;9.90;99.90;;;;;;5067974;28;20230;-73
2021/04/30 05:05:26;;;;;;;29.58;11.50;;;9.90;99.90;;;;;;5071353;28;20210;-73
2021/04/30 05:07:53;;;;;;;27.73;11.20;;;10.00;99.90;;;;;;5072880;28;20199;-74
2021/04/30 05:10:20;;;;;;;32.88;11.32;;;9.90;99.90;;;;;;5065125;28;20659;-72
2021/04/30 05:12:46;;;;;;;27.85;11.38;;;10.00;99.90;;;;;;5070998;28;20571;-72
2021/04/30 05:15:14;;;;;;;30.15;10.93;;;10.00;99.90;;;;;;5070554;28;20222;-73
2021/04/30 05:17:42;;;;;;;25.00;11.07;;;10.00;99.90;;;;;;5068794;28;20206;-71
2021/04/30 05:20:10;;;;;;;34.42;11.13;;;10.00;99.90;;;;;;5067348;28;20670;-72
2021/04/30 05:22:41;;;;;;;26.90;11.07;;;10.00;99.90;;;;;;5061656;28;20202;-72
2021/04/30 05:25:08;;;;;;;30.23;12.32;;;10.00;99.90;;;;;;5067565;28;20260;-71
2021/04/30 05:27:35;;;;;;;29.25;11.68;;;10.10;99.90;;;;;;5066471;28;20260;-76
2021/04/30 05:30:01;;;;;;;35.13;14.25;;;10.10;99.90;;;;;;5071137;28;20201;-74
2021/04/30 05:32:28;;;;;;;33.85;12.70;;;10.10;99.90;;;;;;5072656;28;20210;-72
2021/04/30 05:34:55;;;;;;;28.20;11.73;;;10.10;99.90;;;;;;5072958;28;20197;-74
2021/04/30 05:37:22;;;;;;;29.98;11.32;;;10.10;99.90;;;;;;5068258;28;21090;-72
2021/04/30 05:39:49;;;;;;;28.73;11.75;;;10.10;99.90;;;;;;5065411;28;20195;-72
2021/04/30 05:42:16;;;;;;;27.85;11.70;;;10.10;99.90;;;;;;5075851;28;20210;-72
2021/04/30 05:44:42;;;;;;;37.70;12.77;;;10.10;99.90;;;;;;5081522;28;20199;-72
2021/04/30 05:47:08;;;;;;;31.15;12.10;;;10.10;99.90;;;;;;5068381;28;20226;-73
2021/04/30 05:49:35;;;;;;;32.42;12.32;;;10.00;99.90;;;;;;5072989;28;20202;-73
2021/04/30 05:52:01;;;;;;;32.20;12.02;;;10.10;99.90;;;;;;5083036;28;20202;-73
2021/04/30 05:54:28;;;;;;;34.17;12.07;;;10.10;99.90;;;;;;5070190;28;20194;-71
2021/04/30 05:56:55;;;;;;;25.23;10.88;;;10.10;99.90;;;;;;5069852;28;20563;-72
2021/04/30 05:59:21;;;;;;;29.65;11.75;;;10.20;99.90;;;;;;5078115;28;20201;-73
2021/04/30 06:01:48;;;;;;;38.60;12.00;;;10.20;99.90;;;;;;5076812;28;20251;-73
2021/04/30 06:04:14;;;;;;;31.48;11.32;;;10.20;99.90;;;;;;5081417;28;20210;-73
2021/04/30 06:06:41;;;;;;;26.83;11.20;;;10.20;99.90;;;;;;5073743;28;20222;-75
2021/04/30 06:09:08;;;;;;;29.20;12.63;;;10.20;99.90;;;;;;5083178;28;20198;-72
2021/04/30 06:11:34;;;;;;;33.95;10.85;;;10.30;99.90;;;;;;5084651;28;20255;-73
2021/04/30 06:14:01;;;;;;;29.98;11.38;;;10.30;99.90;;;;;;5083507;28;20198;-73
2021/04/30 06:16:28;;;;;;;25.08;11.13;;;10.40;99.90;;;;;;5069367;28;20187;-73
2021/04/30 06:18:54;;;;;;;27.70;11.88;;;10.30;99.90;;;;;;5075627;28;20250;-74
2021/04/30 06:21:20;;;;;;;30.00;12.25;;;10.40;99.90;;;;;;5071929;28;20217;-74
2021/04/30 06:23:47;;;;;;;29.30;11.65;;;10.40;99.90;;;;;;5074825;28;20199;-71
2021/04/30 06:26:13;;;;;;;25.67;10.18;;;10.40;99.90;;;;;;5069399;28;20584;-75
2021/04/30 06:28:40;;;;;;;34.00;11.05;;;10.40;99.90;;;;;;5075597;28;20197;-72
2021/04/30 06:31:07;;;;;;;25.10;11.20;;;10.50;99.90;;;;;;5081120;28;20195;-71
2021/04/30 06:33:33;;;;;;;23.92;10.75;;;10.50;99.90;;;;;;5076683;28;20248;-75
2021/04/30 06:36:00;;;;;;;26.88;11.25;;;10.50;99.90;;;;;;5083003;28;20677;-74
2021/04/30 06:38:26;;;;;;;33.72;10.98;;;10.50;99.90;;;;;;5067591;28;20213;-72
2021/04/30 06:40:52;;;;;;;30.60;11.07;;;10.60;99.90;;;;;;5075143;28;20202;-72
2021/04/30 06:43:19;;;;;;;29.67;10.75;;;10.60;99.90;;;;;;5068868;28;20207;-73
2021/04/30 06:45:45;;;;;;;34.92;12.85;;;10.60;99.90;;;;;;5068263;28;20276;-73
2021/04/30 06:48:13;;;;;;;31.20;12.32;;;10.60;99.90;;;;;;5069456;28;20324;-73
2021/04/30 06:50:39;;;;;;;34.35;11.95;;;10.60;99.90;;;;;;5077614;28;20209;-74
2021/04/30 06:53:06;;;;;;;25.90;11.65;;;10.60;99.90;;;;;;5085202;28;20311;-74
2021/04/30 06:55:32;;;;;;;29.65;12.25;;;10.60;99.90;;;;;;5071620;28;20195;-73
2021/04/30 06:57:59;;;;;;;32.10;12.18;;;10.60;99.90;;;;;;5078236;28;20572;-73
2021/04/30 07:00:25;;;;;;;32.13;12.23;;;10.70;99.90;;;;;;5083384;28;20568;-73
2021/04/30 07:02:51;;;;;;;26.88;11.63;;;10.70;99.90;;;;;;5081600;28;20232;-73
2021/04/30 07:05:19;;;;;;;30.23;12.85;;;10.70;99.90;;;;;;5071768;28;20198;-73
2021/04/30 07:07:46;;;;;;;31.75;13.02;;;10.70;99.90;;;;;;5065612;28;20211;-71
2021/04/30 07:10:13;;;;;;;35.70;13.25;;;10.70;99.90;;;;;;5071521;28;20208;-72
2021/04/30 07:12:40;;;;;;;32.05;12.02;;;10.70;99.90;;;;;;5069389;28;20659;-71
2021/04/30 07:15:07;;;;;;;27.42;12.68;;;10.80;99.90;;;;;;5068582;28;20209;-73
2021/04/30 07:17:34;;;;;;;30.60;11.38;;;10.80;99.90;;;;;;5068012;28;20552;-71
2021/04/30 07:20:01;;;;;;;25.08;11.77;;;10.80;99.90;;;;;;5069498;28;20211;-72
2021/04/30 07:22:28;;;;;;;26.55;11.63;;;10.80;99.90;;;;;;5070501;28;20214;-73
2021/04/30 07:24:55;;;;;;;27.85;11.15;;;10.80;99.90;;;;;;5071716;28;20204;-73
2021/04/30 07:27:21;;;;;;;28.00;11.88;;;10.90;99.90;;;;;;5072362;28;20225;-72
2021/04/30 07:29:47;;;;;;;25.98;11.02;;;10.90;99.90;;;;;;5075478;28;20696;-72
2021/04/30 07:32:14;;;;;;;30.33;11.60;;;10.90;99.90;;;;;;5071924;28;20213;-73
2021/04/30 07:34:40;;;;;;;21.40;10.45;;;11.00;99.90;;;;;;5067197;28;20260;-72
2021/04/30 07:37:07;;;;;;;27.30;10.80;;;11.00;99.90;;;;;;5069916;28;20216;-71
2021/04/30 07:39:35;;;;;;;28.63;11.25;;;11.00;99.90;;;;;;5076775;28;20667;-72
2021/04/30 07:42:02;;;;;;;23.85;11.52;;;11.10;99.80;;;;;;5070832;28;20203;-72
2021/04/30 07:44:28;;;;;;;24.08;12.23;;;11.10;99.70;;;;;;5067920;28;20215;-71
2021/04/30 07:46:55;;;;;;;21.33;10.30;;;11.10;99.60;;;;;;5070299;28;20222;-72
2021/04/30 07:49:21;;;;;;;22.42;10.82;;;11.20;99.40;;;;;;5075334;28;20203;-71
2021/04/30 07:51:48;;;;;;;23.30;12.00;;;11.20;99.40;;;;;;5069514;28;20307;-73
2021/04/30 07:54:14;;;;;;;28.98;12.40;;;11.30;99.30;;;;;;5070748;28;20202;-72
2021/04/30 07:56:41;;;;;;;27.52;11.05;;;11.40;99.20;;;;;;5067731;28;20215;-73
2021/04/30 07:59:08;;;;;;;21.70;11.10;;;11.40;99.10;;;;;;5077443;28;20268;-71
2021/04/30 08:01:34;;;;;;;20.80;11.00;;;11.50;99.10;;;;;;5077344;28;20283;-73
2021/04/30 08:04:01;;;;;;;23.20;10.65;;;11.50;98.90;;;;;;5070891;28;20297;-72
2021/04/30 08:06:28;;;;;;;23.90;11.90;;;11.50;98.80;;;;;;5075184;28;20237;-72
2021/04/30 08:08:54;;;;;;;28.45;10.95;;;11.60;98.60;;;;;;5069302;28;20194;-71
2021/04/30 08:11:21;;;;;;;24.33;11.00;;;11.60;98.50;;;;;;5071318;28;20221;-71
2021/04/30 08:13:48;;;;;;;26.83;10.85;;;11.60;98.40;;;;;;5068505;28;20229;-71
2021/04/30 08:16:14;;;;;;;29.92;12.00;;;11.70;98.40;;;;;;5067868;28;20269;-71
2021/04/30 08:18:41;;;;;;;25.65;11.13;;;11.70;98.30;;;;;;5072955;28;20191;-71
2021/04/30 08:21:08;;;;;;;27.65;12.55;;;11.80;98.30;;;;;;5069307;28;20209;-71
2021/04/30 08:23:35;;;;;;;25.65;12.20;;;11.80;98.20;;;;;;5068222;28;20206;-73
2021/04/30 08:26:01;;;;;;;21.55;10.80;;;11.80;98.00;;;;;;5074106;28;20225;-72
2021/04/30 08:28:28;;;;;;;21.63;11.00;;;11.90;97.90;;;;;;5069819;28;20685;-71
2021/04/30 08:30:56;;;;;;;26.83;11.32;;;12.00;97.80;;;;;;5076570;28;20208;-70
2021/04/30 08:33:24;;;;;;;22.45;10.18;;;12.00;97.60;;;;;;5068370;28;20236;-70
2021/04/30 08:35:51;;;;;;;26.67;11.02;;;12.10;97.50;;;;;;5074137;28;20269;-70
2021/04/30 08:38:18;;;;;;;21.92;11.32;;;12.10;97.30;;;;;;5067473;28;20205;-71
2021/04/30 08:40:44;;;;;;;19.77;11.05;;;12.20;97.10;;;;;;5072992;28;20202;-71
2021/04/30 08:43:11;;;;;;;21.35;10.60;;;12.20;97.00;;;;;;5065985;28;20571;-70
2021/04/30 08:45:40;;;;;;;21.05;11.05;;;12.20;96.80;;;;;;5068607;28;20210;-71
2021/04/30 08:48:10;;;;;;;20.90;11.80;;;12.30;96.60;;;;;;5075731;28;20276;-71
2021/04/30 08:50:37;;;;;;;23.55;12.38;;;12.30;96.40;;;;;;5069553;28;20568;-72
2021/04/30 08:53:04;;;;;;;24.27;11.75;;;12.30;96.20;;;;;;5068287;28;20205;-73
2021/04/30 08:55:32;;;;;;;23.92;11.85;;;12.40;96.10;;;;;;5067517;28;20229;-72
2021/04/30 08:57:58;;;;;;;26.02;11.48;;;12.40;95.90;;;;;;5065953;28;20190;-73
2021/04/30 09:00:26;;;;;;;24.33;12.10;;;12.40;95.80;;;;;;5066572;28;20556;-73
2021/04/30 09:02:55;;;;;;;24.80;12.45;;;12.40;95.70;;;;;;5065573;28;20230;-72
2021/04/30 09:05:25;;;;;;;24.73;11.95;;;12.40;95.60;;;;;;5067142;28;20206;-71
2021/04/30 09:07:54;;;;;;;22.83;11.85;;;12.50;95.80;;;;;;5067323;28;20252;-74
2021/04/30 09:10:21;;;;;;;21.67;11.38;;;12.50;95.20;;;;;;5068588;28;20209;-71
2021/04/30 09:13:03;;;;;;;22.73;11.77;;;12.50;95.10;;;;;;5070974;28;20195;-72
2021/04/30 09:15:30;;;;;;;21.80;12.27;;;12.50;94.90;;;;;;5065848;28;20790;-72
2021/04/30 09:18:15;;;;;;;23.30;12.00;;;12.50;94.70;;;;;;5067299;28;20241;-73
2021/04/30 09:20:44;;;;;;;20.15;12.35;;;12.50;94.50;;;;;;5068880;28;20608;-72
2021/04/30 09:23:33;;;;;;;18.55;11.32;;;12.50;94.30;;;;;;5066944;28;20219;-75
2021/04/30 09:26:01;;;;;;;22.48;11.98;;;12.50;94.00;;;;;;5065799;28;20219;-73
2021/04/30 09:28:27;;;;;;;25.42;8.93;;;12.50;93.80;;;;;;5068765;28;20747;-72
2021/04/30 09:30:54;;;;;;;21.67;7.20;;;12.40;93.70;;;;;;5067245;28;20659;-72
2021/04/30 09:33:21;;;;;;;18.90;7.20;;;12.40;93.70;;;;;;5073107;28;20190;-71
2021/04/30 09:35:50;;;;;;;23.23;7.32;;;12.30;93.70;;;;;;5068560;28;20225;-72
2021/04/30 09:38:26;;;;;;;19.15;7.18;;;12.30;93.70;;;;;;5067306;28;20198;-72
2021/04/30 09:41:07;;;;;;;18.23;6.25;;;12.20;93.70;;;;;;5075043;28;20247;-73
2021/04/30 09:43:47;;;;;;;19.25;7.60;;;12.20;93.70;;;;;;5069169;28;20680;-72
2021/04/30 09:46:29;;;;;;;22.25;7.55;;;12.20;93.90;;;;;;5066080;28;20658;-75
2021/04/30 09:48:57;;;;;;;21.58;7.40;;;12.10;93.90;;;;;;5072322;28;20209;-73
2021/04/30 09:51:47;;;;;;;24.02;7.07;;;12.10;94.00;;;;;;5074278;28;20191;-74
2021/04/30 09:54:18;;;;;;;20.33;6.65;;;12.10;94.20;;;;;;5067586;28;20534;-73
2021/04/30 09:56:46;;;;;;;21.60;6.13;;;12.20;94.40;;;;;;5069187;28;20221;-72
2021/04/30 09:59:22;;;;;;;23.23;6.22;;;12.20;94.50;;;;;;5066877;28;20194;-73
2021/04/30 10:02:05;;;;;;;28.13;7.10;;;12.30;94.70;;;;;;5068877;28;20238;-76
2021/04/30 10:04:33;;;;;;;14.75;5.30;;;12.30;94.70;;;;;;5069035;28;20198;-74
2021/04/30 10:07:01;;;;;;;21.60;5.97;;;12.30;94.70;;;;;;5066462;28;20226;-76
2021/04/30 10:09:28;;;;;;;22.55;6.18;;;12.30;94.60;;;;;;5068094;28;20214;-74
2021/04/30 10:11:55;;;;;;;21.55;5.40;;;12.30;94.60;;;;;;5066088;28;20199;-72
2021/04/30 10:14:22;;;;;;;16.65;5.68;;;12.30;94.50;;;;;;5066617;28;20237;-71
2021/04/30 10:16:49;;;;;;;18.92;5.38;;;12.30;94.30;;;;;;5065460;28;20199;-72
2021/04/30 10:19:16;;;;;;;20.42;5.47;;;12.20;94.20;;;;;;5072461;28;20658;-71
2021/04/30 10:21:45;;;;;;;14.30;5.72;;;12.20;94.20;;;;;;5068304;28;20228;-71
2021/04/30 10:24:16;;;;;;;23.60;6.28;;;12.20;94.20;;;;;;5072700;28;20190;-72
2021/04/30 10:26:44;;;;;;;15.27;6.63;;;12.10;94.30;;;;;;5066533;28;20218;-71
2021/04/30 10:29:15;;;;;;;21.10;7.82;;;12.10;94.40;;;;;;5069311;28;20213;-71
2021/04/30 10:31:46;;;;;;;22.75;7.15;;;12.10;94.50;;;;;;5065530;28;20596;-71
2021/04/30 10:34:20;;;;;;;28.60;7.97;;;12.10;94.50;;;;;;5069542;28;20651;-72
2021/04/30 10:36:50;;;;;;;23.17;7.13;;;12.10;94.60;;;;;;5070497;28;20209;-71
2021/04/30 10:39:27;;;;;;;23.42;8.55;;;12.10;94.50;;;;;;5065800;28;20198;-71
2021/04/30 10:41:54;;;;;;;25.48;8.07;;;12.10;94.50;;;;;;5064291;28;20213;-71
2021/04/30 10:44:23;;;;;;;23.48;8.07;;;12.10;94.40;;;;;;5068352;28;20662;-72
2021/04/30 10:46:51;;;;;;;26.25;8.60;;;12.10;94.50;;;;;;5067118;28;20229;-70
2021/04/30 10:49:21;;;;;;;29.13;8.98;;;12.10;94.60;;;;;;5070621;28;20248;-72
2021/04/30 10:52:19;;;;;;;24.95;10.20;;;12.10;94.70;;;;;;5068521;28;20210;-72
2021/04/30 10:54:59;;;;;;;30.70;11.00;;;12.00;94.80;;;;;;5071290;28;20206;-72
2021/04/30 10:57:26;;;;;;;22.17;10.57;;;12.00;94.90;;;;;;5069241;28;20611;-71
2021/04/30 10:59:52;;;;;;;25.38;10.35;;;12.00;95.30;;;;;;5072568;28;20203;-71
2021/04/30 11:02:25;;;;;;;24.23;9.70;;;12.00;95.00;;;;;;5074912;28;20237;-71
2021/04/30 11:05:12;;;;;;;27.52;10.30;;;12.00;95.10;;;;;;5070417;28;20202;-71
2021/04/30 11:07:41;;;;;;;27.95;9.80;;;11.90;95.10;;;;;;5075423;28;20214;-72
2021/04/30 11:10:39;;;;;;;27.30;10.70;;;11.90;95.20;;;;;;5071875;28;20199;-72
2021/04/30 11:13:17;;;;;;;31.40;11.13;;;11.80;95.30;;;;;;5071029;28;20685;-72
2021/04/30 11:15:56;;;;;;;28.25;10.95;;;11.80;95.50;;;;;;5076683;28;20263;-71
2021/04/30 11:18:23;;;;;;;25.95;9.90;;;11.80;95.80;;;;;;5070114;28;20206;-72
2021/04/30 11:21:09;;;;;;;34.78;10.93;;;11.80;96.10;;;;;;5071794;28;20301;-74
2021/04/30 11:23:41;;;;;;;30.80;10.73;;;11.70;96.40;;;;;;5073971;28;20706;-72
2021/04/30 11:26:12;;;;;;;28.05;10.48;;;11.70;96.70;;;;;;5068201;28;20572;-74
2021/04/30 11:29:08;;;;;;;23.60;10.25;;;11.70;96.90;;;;;;5071205;28;20215;-73
2021/04/30 11:31:35;;;;;;;30.83;10.95;;;11.70;97.10;;;;;;5068781;28;20206;-74
2021/04/30 11:34:21;;;;;;;22.50;10.50;;;11.60;97.70;;;;;;5071588;28;20728;-72
2021/04/30 11:36:55;;;;;;;27.17;10.38;;;11.60;97.70;;;;;;5066958;28;20213;-73
2021/04/30 11:39:34;;;;;;;27.52;10.75;;;11.60;98.00;;;;;;5070229;28;20693;-72
2021/04/30 11:42:04;;;;;;;24.92;10.63;;;11.60;98.40;;;;;;5068592;28;20213;-72
2021/04/30 11:44:31;;;;;;;29.13;11.60;;;11.60;98.70;;;;;;5073668;28;20202;-73
2021/04/30 11:47:02;;;;;;;30.20;11.85;;;11.60;98.90;;;;;;5066382;28;20842;-74
2021/04/30 11:49:29;;;;;;;21.48;10.57;;;11.60;99.10;;;;;;5073401;28;20285;-73
2021/04/30 11:51:56;;;;;;;27.30;10.60;;;11.60;99.30;;;;;;5064790;28;20194;-71
2021/04/30 11:54:28;;;;;;;26.33;10.38;;;11.50;99.50;;;;;;5075295;28;20251;-72
2021/04/30 11:57:03;;;;;;;25.90;10.18;;;11.50;99.60;;;;;;5071666;28;20202;-74
2021/04/30 11:59:30;;;;;;;27.48;10.95;;;11.50;99.80;;;;;;5069554;28;20214;-71
2021/04/30 12:02:04;;;;;;;19.35;9.00;;;11.40;99.90;;;;;;5069292;28;20226;-74
2021/04/30 12:04:36;;;;;;;27.33;9.13;;;11.40;99.90;;;;;;5074186;28;20630;-72
2021/04/30 12:07:02;;;;;;;20.00;8.90;;;11.40;99.90;;;;;;5071344;28;20225;-71
2021/04/30 12:09:30;;;;;;;29.98;9.68;;;11.40;99.90;;;;;;5070734;28;20213;-73
2021/04/30 12:12:09;;;;;;;22.95;8.98;;;11.40;99.90;;;;;;5069774;28;20207;-71
2021/04/30 12:14:44;;;;;;;22.80;8.27;;;11.30;99.90;;;;;;5072459;28;20211;-74
2021/04/30 12:17:22;;;;;;;23.17;9.40;;;11.30;99.90;;;;;;5069480;28;20202;-72
2021/04/30 12:20:06;;;;;;;24.25;9.02;;;11.30;99.90;;;;;;5067786;28;20739;-73
2021/04/30 12:22:34;;;;;;;25.48;9.18;;;11.20;99.90;;;;;;5068347;28;20214;-72
2021/04/30 12:25:30;;;;;;;26.98;9.43;;;11.20;99.90;;;;;;5069659;28;20604;-74
2021/04/30 12:28:25;;;;;;;21.48;9.45;;;11.20;99.90;;;;;;5071230;28;20304;-72
2021/04/30 12:30:57;;;;;;;22.92;8.85;;;11.20;99.90;;;;;;5072233;28;20199;-73
2021/04/30 12:33:32;;;;;;;16.77;8.85;;;11.20;99.90;;;;;;5070407;28;20746;-72
2021/04/30 12:36:01;;;;;;;25.48;10.18;;;11.10;99.90;;;;;;5075270;28;20204;-73
2021/04/30 12:38:28;;;;;;;18.52;9.05;;;11.10;99.90;;;;;;5068920;28;20238;-71